Time;durP1;ratioP1;P1;durP2;ratioP2;P2;SDS_P1;SDS_P2;PMS_P1;PMS_P2;Temp;Humidity;BMP_temperature;BMP_pressure;BME280_temperature;BME280_humidity;BME280_pressure;Samples;Min_cycle;Max_cycle;Signal;HPM_P1;HPM_P2
2023/11/29 00:02:03;;;;;;;26.77;14.63;;;;;;;;;;5033398;28;20395;-61
2023/11/29 00:04:28;;;;;;;28.00;14.93;;;;;;;;;;5039634;28;20029;-62
2023/11/29 00:06:53;;;;;;;30.00;15.97;;;;;;;;;;5040860;28;20029;-63
2023/11/29 00:09:19;;;;;;;20.50;11.40;;;;;;;;;;5033517;28;20034;-62
2023/11/29 00:11:44;;;;;;;26.27;13.77;;;;;;;;;;5035561;28;20025;-61
2023/11/29 00:14:10;;;;;;;32.67;17.47;;;;;;;;;;5041779;28;20434;-63
2023/11/29 00:16:35;;;;;;;29.27;14.77;;;;;;;;;;5040330;28;20021;-61
2023/11/29 00:19:00;;;;;;;29.47;15.40;;;;;;;;;;5040492;28;20059;-61
2023/11/29 00:21:27;;;;;;;22.67;9.40;;;;;;;;;;5038388;28;20032;-62
2023/11/29 00:23:53;;;;;;;24.53;14.20;;;;;;;;;;5041703;28;20017;-61
2023/11/29 00:26:22;;;;;;;26.90;14.50;;;;;;;;;;5042459;28;20478;-62
2023/11/29 00:28:47;;;;;;;24.87;13.47;;;;;;;;;;5037984;28;20373;-63
2023/11/29 00:31:13;;;;;;;30.57;16.90;;;;;;;;;;5040125;28;20029;-62
2023/11/29 00:33:38;;;;;;;29.90;17.10;;;;;;;;;;5039085;28;20036;-62
2023/11/29 00:36:03;;;;;;;19.10;11.20;;;;;;;;;;5039443;28;20021;-62
2023/11/29 00:38:29;;;;;;;31.33;16.70;;;;;;;;;;5039863;28;20043;-62
2023/11/29 00:40:54;;;;;;;24.83;14.77;;;;;;;;;;5036064;28;20029;-61
2023/11/29 00:43:19;;;;;;;27.67;16.17;;;;;;;;;;5039293;28;20049;-64
2023/11/29 00:45:45;;;;;;;22.03;12.70;;;;;;;;;;5035593;28;20033;-63
2023/11/29 00:48:10;;;;;;;22.20;13.00;;;;;;;;;;5038423;28;20096;-61
2023/11/29 00:50:35;;;;;;;20.13;11.37;;;;;;;;;;5033038;28;20238;-62
2023/11/29 00:53:00;;;;;;;25.50;14.90;;;;;;;;;;5035450;28;20087;-64
2023/11/29 00:55:26;;;;;;;21.23;12.50;;;;;;;;;;5035093;28;20108;-62
2023/11/29 00:57:51;;;;;;;22.80;13.27;;;;;;;;;;5033296;28;20014;-63
2023/11/29 01:00:16;;;;;;;23.40;14.03;;;;;;;;;;5032810;28;20091;-63
2023/11/29 01:02:42;;;;;;;26.87;15.33;;;;;;;;;;5034966;28;20017;-68
2023/11/29 01:05:07;;;;;;;23.20;13.73;;;;;;;;;;5040411;28;20026;-67
2023/11/29 01:07:32;;;;;;;22.20;12.97;;;;;;;;;;5034400;28;20032;-66
2023/11/29 01:09:58;;;;;;;19.03;11.27;;;;;;;;;;5031752;28;20083;-67
2023/11/29 01:12:23;;;;;;;23.60;12.80;;;;;;;;;;5037812;28;20629;-66
2023/11/29 01:14:48;;;;;;;24.50;14.57;;;;;;;;;;5037225;28;20311;-66
2023/11/29 01:17:14;;;;;;;24.73;14.50;;;;;;;;;;5036819;28;20025;-67
2023/11/29 01:19:39;;;;;;;17.87;10.10;;;;;;;;;;5034107;28;20022;-71
2023/11/29 01:22:04;;;;;;;21.73;12.27;;;;;;;;;;5040074;28;20444;-66
2023/11/29 01:24:29;;;;;;;18.47;10.77;;;;;;;;;;5042779;28;20101;-69
2023/11/29 01:26:55;;;;;;;25.20;14.83;;;;;;;;;;5039674;28;20029;-69
2023/11/29 01:29:20;;;;;;;21.97;13.20;;;;;;;;;;5035179;28;20374;-66
2023/11/29 01:31:45;;;;;;;22.60;13.00;;;;;;;;;;5040462;28;20021;-67
2023/11/29 01:34:10;;;;;;;18.33;11.07;;;;;;;;;;5038744;28;20017;-69
2023/11/29 01:36:40;;;;;;;21.43;13.23;;;;;;;;;;5037479;28;20021;-67
2023/11/29 01:39:05;;;;;;;22.53;11.03;;;;;;;;;;5037313;28;20540;-65
2023/11/29 01:41:30;;;;;;;23.23;13.83;;;;;;;;;;5036277;28;20147;-69
2023/11/29 01:43:55;;;;;;;23.17;13.03;;;;;;;;;;5036038;28;20014;-68
2023/11/29 01:46:21;;;;;;;12.27;7.73;;;;;;;;;;5040247;28;20094;-66
2023/11/29 01:48:46;;;;;;;23.07;12.40;;;;;;;;;;5032387;28;20023;-69
2023/11/29 01:51:12;;;;;;;21.60;12.40;;;;;;;;;;5035430;28;20124;-65
2023/11/29 01:53:38;;;;;;;18.73;11.03;;;;;;;;;;5033950;28;20020;-66
2023/11/29 01:56:03;;;;;;;22.83;13.73;;;;;;;;;;5032962;28;20490;-68
2023/11/29 01:58:28;;;;;;;23.07;12.90;;;;;;;;;;5035937;28;20030;-67
2023/11/29 02:00:54;;;;;;;22.00;13.33;;;;;;;;;;5032907;28;20029;-67
2023/11/29 02:03:20;;;;;;;20.57;11.20;;;;;;;;;;5038897;28;20029;-66
2023/11/29 02:05:46;;;;;;;24.67;13.27;;;;;;;;;;5031146;28;20382;-65
2023/11/29 02:08:11;;;;;;;27.70;15.77;;;;;;;;;;5033453;28;20734;-65
2023/11/29 02:10:37;;;;;;;21.10;12.20;;;;;;;;;;5035890;28;20029;-67
2023/11/29 02:13:03;;;;;;;23.93;13.30;;;;;;;;;;5035869;28;20017;-65
2023/11/29 02:15:28;;;;;;;24.53;13.37;;;;;;;;;;5033051;28;20018;-64
2023/11/29 02:17:53;;;;;;;27.07;14.57;;;;;;;;;;5028833;28;20039;-65
2023/11/29 02:20:19;;;;;;;24.63;14.10;;;;;;;;;;5035106;28;20037;-65
2023/11/29 02:22:55;;;;;;;25.50;13.40;;;;;;;;;;5036354;28;20029;-65
2023/11/29 02:25:21;;;;;;;28.20;15.13;;;;;;;;;;5036910;28;20116;-67
2023/11/29 02:27:46;;;;;;;23.53;12.70;;;;;;;;;;5031404;28;20129;-64
2023/11/29 02:30:11;;;;;;;25.77;13.90;;;;;;;;;;5038100;28;20025;-65
2023/11/29 02:32:36;;;;;;;30.07;16.23;;;;;;;;;;5035725;28;20630;-65
2023/11/29 02:35:02;;;;;;;29.00;16.73;;;;;;;;;;5036998;28;20016;-65
2023/11/29 02:37:27;;;;;;;30.87;15.43;;;;;;;;;;5039469;28;20009;-65
2023/11/29 02:39:52;;;;;;;32.50;16.77;;;;;;;;;;5034028;28;20017;-66
2023/11/29 02:42:18;;;;;;;32.00;15.97;;;;;;;;;;5037835;28;20028;-65
2023/11/29 02:44:43;;;;;;;25.63;13.80;;;;;;;;;;5035661;28;20048;-63
2023/11/29 02:47:08;;;;;;;35.77;18.70;;;;;;;;;;5033493;28;20641;-64
2023/11/29 02:49:34;;;;;;;36.87;18.60;;;;;;;;;;5033142;28;20380;-65
2023/11/29 02:51:59;;;;;;;32.30;17.03;;;;;;;;;;5033977;28;20032;-63
2023/11/29 02:54:24;;;;;;;33.40;16.87;;;;;;;;;;5038184;28;20017;-63
2023/11/29 02:56:50;;;;;;;30.00;15.57;;;;;;;;;;5030496;28;20013;-64
2023/11/29 02:59:15;;;;;;;29.43;16.47;;;;;;;;;;5033879;28;20390;-65
2023/11/29 03:01:40;;;;;;;26.73;14.57;;;;;;;;;;5036950;28;20014;-63
2023/11/29 03:04:05;;;;;;;32.37;17.43;;;;;;;;;;5036541;28;20021;-63
2023/11/29 03:06:31;;;;;;;30.37;15.83;;;;;;;;;;5040941;28;20021;-64
2023/11/29 03:08:56;;;;;;;29.93;14.90;;;;;;;;;;5035541;28;20477;-64
2023/11/29 03:11:21;;;;;;;31.30;16.07;;;;;;;;;;5044255;28;20056;-63
2023/11/29 03:13:46;;;;;;;26.90;13.90;;;;;;;;;;5034391;28;20017;-66
2023/11/29 03:16:12;;;;;;;30.37;17.43;;;;;;;;;;5036364;28;20031;-64
2023/11/29 03:18:37;;;;;;;26.97;13.93;;;;;;;;;;5041827;28;20068;-63
2023/11/29 03:21:02;;;;;;;32.60;16.83;;;;;;;;;;5037046;28;20021;-63
2023/11/29 03:23:27;;;;;;;36.40;17.63;;;;;;;;;;5041923;28;20021;-61
2023/11/29 03:25:53;;;;;;;33.20;16.27;;;;;;;;;;5031874;28;20014;-62
2023/11/29 03:28:18;;;;;;;33.93;16.97;;;;;;;;;;5037860;28;20122;-61
2023/11/29 03:30:43;;;;;;;33.77;17.40;;;;;;;;;;5039395;28;20406;-62
2023/11/29 03:33:09;;;;;;;33.53;16.93;;;;;;;;;;5038579;28;20024;-61
2023/11/29 03:35:34;;;;;;;34.73;17.50;;;;;;;;;;5036020;28;20618;-62
2023/11/29 03:37:59;;;;;;;29.90;14.13;;;;;;;;;;5035860;28;20082;-61
2023/11/29 03:40:24;;;;;;;33.70;17.17;;;;;;;;;;5040877;28;20571;-62
2023/11/29 03:42:50;;;;;;;34.70;17.80;;;;;;;;;;5039044;28;20101;-64
2023/11/29 03:45:15;;;;;;;34.57;16.93;;;;;;;;;;5042674;28;20633;-62
2023/11/29 03:47:40;;;;;;;29.73;16.93;;;;;;;;;;5039199;28;20445;-60
2023/11/29 03:50:06;;;;;;;31.83;16.50;;;;;;;;;;5037368;28;20036;-61
2023/11/29 03:52:31;;;;;;;31.87;16.33;;;;;;;;;;5037943;28;20125;-60
2023/11/29 03:54:57;;;;;;;28.63;15.13;;;;;;;;;;5038941;28;20743;-63
2023/11/29 03:57:22;;;;;;;35.20;17.77;;;;;;;;;;5038454;28;20099;-63
2023/11/29 03:59:47;;;;;;;35.90;18.43;;;;;;;;;;5039050;28;20044;-63
2023/11/29 04:02:12;;;;;;;32.87;18.00;;;;;;;;;;5037220;28;20088;-60
2023/11/29 04:04:38;;;;;;;30.00;16.03;;;;;;;;;;5039775;28;20109;-62
2023/11/29 04:07:03;;;;;;;30.20;15.90;;;;;;;;;;5033127;28;20021;-62
2023/11/29 04:09:29;;;;;;;30.53;15.37;;;;;;;;;;5039119;28;20086;-62
2023/11/29 04:11:54;;;;;;;32.87;16.80;;;;;;;;;;5039562;28;20020;-62
2023/11/29 04:14:20;;;;;;;35.33;17.60;;;;;;;;;;5036285;28;20381;-64
2023/11/29 04:16:45;;;;;;;32.37;16.13;;;;;;;;;;5038797;28;20503;-64
2023/11/29 04:19:11;;;;;;;29.23;15.63;;;;;;;;;;5041429;28;20024;-62
2023/11/29 04:21:36;;;;;;;29.40;15.83;;;;;;;;;;5036615;28;20533;-61
2023/11/29 04:24:01;;;;;;;25.03;13.73;;;;;;;;;;5035224;28;20014;-63
2023/11/29 04:26:29;;;;;;;27.27;14.60;;;;;;;;;;5041142;28;20100;-64
2023/11/29 04:28:54;;;;;;;28.47;14.97;;;;;;;;;;5037309;28;20400;-61
2023/11/29 04:31:19;;;;;;;24.07;12.10;;;;;;;;;;5040431;28;20090;-63
2023/11/29 04:33:45;;;;;;;29.70;15.83;;;;;;;;;;5033404;28;20036;-62
2023/11/29 04:36:10;;;;;;;25.83;13.93;;;;;;;;;;5037627;28;20469;-64
2023/11/29 04:38:37;;;;;;;31.10;15.37;;;;;;;;;;5040837;28;20021;-62
2023/11/29 04:41:02;;;;;;;26.57;13.37;;;;;;;;;;5036703;28;20053;-62
2023/11/29 04:43:27;;;;;;;27.77;13.90;;;;;;;;;;5043336;28;20060;-62
2023/11/29 04:45:53;;;;;;;28.33;15.83;;;;;;;;;;5032818;28;20021;-62
2023/11/29 04:48:18;;;;;;;32.97;17.00;;;;;;;;;;5039742;28;20473;-62
2023/11/29 04:50:43;;;;;;;27.67;14.33;;;;;;;;;;5035320;28;20428;-63
2023/11/29 04:53:08;;;;;;;35.87;17.57;;;;;;;;;;5041336;28;20013;-63
2023/11/29 04:55:34;;;;;;;33.77;16.50;;;;;;;;;;5040900;28;20037;-64
2023/11/29 04:57:59;;;;;;;35.87;17.67;;;;;;;;;;5038634;28;20380;-61
2023/11/29 05:00:25;;;;;;;34.63;16.77;;;;;;;;;;5036315;28;20071;-62
2023/11/29 05:02:51;;;;;;;35.33;17.63;;;;;;;;;;5034879;28;20020;-61
2023/11/29 05:05:16;;;;;;;33.03;18.07;;;;;;;;;;5034706;28;20370;-64
2023/11/29 05:07:41;;;;;;;37.63;17.83;;;;;;;;;;5036047;28;20025;-64
2023/11/29 05:10:07;;;;;;;39.50;18.77;;;;;;;;;;5035816;28;20033;-64
2023/11/29 05:12:33;;;;;;;30.37;15.60;;;;;;;;;;5035766;28;20128;-63
2023/11/29 05:14:58;;;;;;;31.97;16.30;;;;;;;;;;5038103;28;20109;-63
2023/11/29 05:17:23;;;;;;;29.17;15.57;;;;;;;;;;5035657;28;20025;-62
2023/11/29 05:19:50;;;;;;;34.07;17.07;;;;;;;;;;5035721;28;20630;-62
2023/11/29 05:22:15;;;;;;;32.87;15.97;;;;;;;;;;5034369;28;20017;-63
2023/11/29 05:24:42;;;;;;;33.80;17.00;;;;;;;;;;5037454;28;20017;-61
2023/11/29 05:27:07;;;;;;;28.33;14.63;;;;;;;;;;5037724;28;20017;-62
2023/11/29 05:29:33;;;;;;;34.50;16.47;;;;;;;;;;5038594;28;20094;-62
2023/11/29 05:31:58;;;;;;;31.60;16.00;;;;;;;;;;5032315;28;20017;-63
2023/11/29 05:34:24;;;;;;;33.07;16.53;;;;;;;;;;5037365;28;20021;-63
2023/11/29 05:36:49;;;;;;;31.77;17.20;;;;;;;;;;5039770;28;20119;-64
2023/11/29 05:39:14;;;;;;;22.77;11.80;;;;;;;;;;5038419;28;20722;-62
2023/11/29 05:41:39;;;;;;;27.20;13.37;;;;;;;;;;5038354;28;20017;-67
2023/11/29 05:44:05;;;;;;;26.47;13.93;;;;;;;;;;5035258;28;20021;-69
2023/11/29 05:46:32;;;;;;;26.43;13.67;;;;;;;;;;5037770;28;20016;-67
2023/11/29 05:48:58;;;;;;;31.40;15.37;;;;;;;;;;5031679;28;20048;-68
2023/11/29 05:51:24;;;;;;;30.00;15.37;;;;;;;;;;5038632;28;20490;-66
2023/11/29 05:53:50;;;;;;;35.23;16.70;;;;;;;;;;5034556;28;20017;-71
2023/11/29 05:56:15;;;;;;;32.60;16.97;;;;;;;;;;5034150;28;20027;-69
2023/11/29 05:58:42;;;;;;;34.07;15.63;;;;;;;;;;5039985;28;20085;-71
2023/11/29 06:01:08;;;;;;;31.93;15.87;;;;;;;;;;5034613;28;20025;-68
2023/11/29 06:03:33;;;;;;;34.40;18.50;;;;;;;;;;5038026;28;20052;-69
2023/11/29 06:05:58;;;;;;;31.97;16.63;;;;;;;;;;5032636;28;20014;-70
2023/11/29 06:08:24;;;;;;;34.63;17.43;;;;;;;;;;5035222;28;20025;-67
2023/11/29 06:10:49;;;;;;;32.43;16.43;;;;;;;;;;5034903;28;20032;-69
2023/11/29 06:13:14;;;;;;;24.60;13.13;;;;;;;;;;5033583;28;20100;-69
2023/11/29 06:15:42;;;;;;;23.43;11.20;;;;;;;;;;5034518;28;20236;-69
2023/11/29 06:18:08;;;;;;;34.80;16.73;;;;;;;;;;5037393;28;20009;-67
2023/11/29 06:20:33;;;;;;;27.57;14.13;;;;;;;;;;5032514;28;20503;-67
2023/11/29 06:22:59;;;;;;;24.23;12.63;;;;;;;;;;5035972;28;20401;-67
2023/11/29 06:25:24;;;;;;;27.73;14.50;;;;;;;;;;5031815;28;20024;-69
2023/11/29 06:27:50;;;;;;;29.53;16.47;;;;;;;;;;5035888;28;20025;-69
2023/11/29 06:30:16;;;;;;;35.70;17.67;;;;;;;;;;5036336;28;20320;-71
2023/11/29 06:32:41;;;;;;;31.07;16.10;;;;;;;;;;5035550;28;20450;-71
2023/11/29 06:35:11;;;;;;;27.43;14.57;;;;;;;;;;5041371;28;20055;-68
2023/11/29 06:37:36;;;;;;;34.43;15.67;;;;;;;;;;5038022;28;20029;-70
2023/11/29 06:40:02;;;;;;;32.40;16.30;;;;;;;;;;5035368;28;20416;-71
2023/11/29 06:42:28;;;;;;;25.13;13.23;;;;;;;;;;5040198;28;20022;-68
2023/11/29 06:44:53;;;;;;;34.23;16.47;;;;;;;;;;5043358;28;20017;-70
2023/11/29 06:47:19;;;;;;;30.07;15.87;;;;;;;;;;5042414;28;20410;-69
2023/11/29 06:49:44;;;;;;;21.13;11.10;;;;;;;;;;5042563;28;20021;-68
2023/11/29 06:52:10;;;;;;;24.00;13.17;;;;;;;;;;5036626;28;20116;-70
2023/11/29 06:54:36;;;;;;;26.90;14.27;;;;;;;;;;5040086;28;20021;-69
2023/11/29 06:57:02;;;;;;;24.87;13.10;;;;;;;;;;5038641;28;20091;-69
2023/11/29 06:59:27;;;;;;;28.10;13.67;;;;;;;;;;5039443;28;20021;-68
2023/11/29 07:01:52;;;;;;;25.80;13.57;;;;;;;;;;5042534;28;20632;-69
2023/11/29 07:04:17;;;;;;;26.93;14.13;;;;;;;;;;5033743;28;20021;-70
2023/11/29 07:06:43;;;;;;;16.30;8.70;;;;;;;;;;5042510;28;20082;-67
2023/11/29 07:09:08;;;;;;;26.53;14.27;;;;;;;;;;5039320;28;20028;-69
2023/11/29 07:11:36;;;;;;;28.77;14.77;;;;;;;;;;5036073;28;20037;-70
2023/11/29 07:14:02;;;;;;;20.77;11.30;;;;;;;;;;5037231;28;20107;-67
2023/11/29 07:16:28;;;;;;;28.30;14.90;;;;;;;;;;5037634;28;20505;-72
2023/11/29 07:18:53;;;;;;;29.23;15.73;;;;;;;;;;5041266;28;20092;-71
2023/11/29 07:21:19;;;;;;;26.80;14.80;;;;;;;;;;5036310;28;20036;-69
2023/11/29 07:23:44;;;;;;;23.50;12.33;;;;;;;;;;5036171;28;20025;-69
2023/11/29 07:26:10;;;;;;;29.10;14.43;;;;;;;;;;5043361;28;20429;-71
2023/11/29 07:28:35;;;;;;;25.60;13.83;;;;;;;;;;5039431;28;20334;-69
2023/11/29 07:31:01;;;;;;;24.27;13.10;;;;;;;;;;5040066;28;20111;-70
2023/11/29 07:33:26;;;;;;;26.93;14.10;;;;;;;;;;5036009;28;20101;-67
2023/11/29 07:35:51;;;;;;;22.30;11.77;;;;;;;;;;5040882;28;20025;-68
2023/11/29 07:38:16;;;;;;;27.50;14.33;;;;;;;;;;5036398;28;20404;-70
2023/11/29 07:40:42;;;;;;;28.40;14.97;;;;;;;;;;5043238;28;20641;-69
2023/11/29 07:43:08;;;;;;;25.77;13.37;;;;;;;;;;5042565;28;20047;-71
2023/11/29 07:45:33;;;;;;;26.87;13.77;;;;;;;;;;5041947;28;20024;-70
2023/11/29 07:47:59;;;;;;;27.60;14.53;;;;;;;;;;5039099;28;20643;-71
2023/11/29 07:50:24;;;;;;;31.87;15.70;;;;;;;;;;5036806;28;20029;-69
2023/11/29 07:52:51;;;;;;;27.47;14.23;;;;;;;;;;5040047;28;20651;-70
2023/11/29 07:55:16;;;;;;;32.30;16.00;;;;;;;;;;5040419;28;20104;-69
2023/11/29 07:57:41;;;;;;;27.93;14.10;;;;;;;;;;5039666;28;20092;-67
2023/11/29 08:00:07;;;;;;;29.60;15.13;;;;;;;;;;5039831;28;20028;-71
2023/11/29 08:02:32;;;;;;;26.37;13.30;;;;;;;;;;5033601;28;20256;-65
2023/11/29 08:04:58;;;;;;;31.33;14.53;;;;;;;;;;5041223;28;20425;-63
2023/11/29 08:07:24;;;;;;;32.13;16.57;;;;;;;;;;5029942;28;20021;-63
2023/11/29 08:09:49;;;;;;;30.83;16.00;;;;;;;;;;5039497;28;20136;-63
2023/11/29 08:12:16;;;;;;;34.13;16.77;;;;;;;;;;5032236;28;20051;-64
2023/11/29 08:14:41;;;;;;;32.97;17.13;;;;;;;;;;5038142;28;20024;-64
2023/11/29 08:17:06;;;;;;;32.93;17.30;;;;;;;;;;5042656;28;20469;-65
2023/11/29 08:19:32;;;;;;;33.83;17.00;;;;;;;;;;5033276;28;20021;-65
2023/11/29 08:21:57;;;;;;;34.87;17.93;;;;;;;;;;5032602;28;20055;-63
2023/11/29 08:24:22;;;;;;;31.83;17.87;;;;;;;;;;5034743;28;20107;-66
2023/11/29 08:26:48;;;;;;;36.57;17.87;;;;;;;;;;5036760;28;20013;-64
2023/11/29 08:29:13;;;;;;;33.17;17.77;;;;;;;;;;5038879;28;20014;-64
2023/11/29 08:31:38;;;;;;;39.17;18.80;;;;;;;;;;5034017;28;20024;-64
2023/11/29 08:34:03;;;;;;;34.70;16.87;;;;;;;;;;5039975;28;20021;-65
2023/11/29 08:36:29;;;;;;;39.07;19.13;;;;;;;;;;5042316;28;20478;-64
2023/11/29 08:38:55;;;;;;;40.87;18.67;;;;;;;;;;5036093;28;20023;-63
2023/11/29 08:41:21;;;;;;;42.53;19.67;;;;;;;;;;5039401;28;20264;-63
2023/11/29 08:43:47;;;;;;;40.87;19.17;;;;;;;;;;5039845;28;20128;-62
2023/11/29 08:46:12;;;;;;;33.93;16.63;;;;;;;;;;5036053;28;20022;-62
2023/11/29 08:48:37;;;;;;;34.27;16.43;;;;;;;;;;5041571;28;20022;-64
2023/11/29 08:51:05;;;;;;;36.07;16.90;;;;;;;;;;5042509;28;20034;-64
2023/11/29 08:53:32;;;;;;;31.67;15.17;;;;;;;;;;5039492;28;20476;-63
2023/11/29 08:55:57;;;;;;;34.00;16.33;;;;;;;;;;5039025;28;20024;-63
2023/11/29 08:58:22;;;;;;;33.03;16.90;;;;;;;;;;5035941;28;20021;-62
2023/11/29 09:00:47;;;;;;;31.50;14.47;;;;;;;;;;5037825;28;20067;-63
2023/11/29 09:03:13;;;;;;;35.53;18.63;;;;;;;;;;5038921;28;20024;-62
2023/11/29 09:05:40;;;;;;;35.63;16.53;;;;;;;;;;5034336;28;20026;-62
2023/11/29 09:08:05;;;;;;;22.57;11.53;;;;;;;;;;5042647;28;20021;-63
2023/11/29 09:10:30;;;;;;;30.53;15.77;;;;;;;;;;5031648;28;20534;-63
2023/11/29 09:12:56;;;;;;;39.83;17.73;;;;;;;;;;5039285;28;20079;-67
2023/11/29 09:15:21;;;;;;;28.03;13.30;;;;;;;;;;5032261;28;20021;-68
2023/11/29 09:17:46;;;;;;;30.67;15.03;;;;;;;;;;5029865;28;20017;-68
2023/11/29 09:20:12;;;;;;;27.33;13.83;;;;;;;;;;5038527;28;20428;-66
2023/11/29 09:22:37;;;;;;;27.10;13.60;;;;;;;;;;5033489;28;20025;-65
2023/11/29 09:25:03;;;;;;;33.37;16.17;;;;;;;;;;5039317;28;20029;-67
2023/11/29 09:27:29;;;;;;;32.17;15.17;;;;;;;;;;5030675;28;20030;-66
2023/11/29 09:29:54;;;;;;;32.00;14.67;;;;;;;;;;5032505;28;20844;-68
2023/11/29 09:32:20;;;;;;;31.77;14.63;;;;;;;;;;5037021;28;20676;-62
2023/11/29 09:34:45;;;;;;;30.77;14.63;;;;;;;;;;5032038;28;20576;-62
2023/11/29 09:37:11;;;;;;;33.23;14.80;;;;;;;;;;5037398;28;20025;-63
2023/11/29 09:39:37;;;;;;;33.47;13.47;;;;;;;;;;5033367;28;20440;-63
2023/11/29 09:42:02;;;;;;;28.57;14.10;;;;;;;;;;5040325;28;20104;-63
2023/11/29 09:44:28;;;;;;;26.60;12.50;;;;;;;;;;5040326;28;20105;-62
2023/11/29 09:46:54;;;;;;;30.27;13.63;;;;;;;;;;5038382;28;20021;-63
2023/11/29 09:49:19;;;;;;;27.97;13.43;;;;;;;;;;5037282;28;20103;-63
2023/11/29 09:51:45;;;;;;;25.87;11.60;;;;;;;;;;5038690;28;20626;-63
2023/11/29 09:54:10;;;;;;;21.47;9.83;;;;;;;;;;5037810;28;20013;-62
2023/11/29 09:56:36;;;;;;;19.40;8.73;;;;;;;;;;5036029;28;20067;-63
2023/11/29 09:59:01;;;;;;;17.47;7.80;;;;;;;;;;5037192;28;20009;-64
2023/11/29 10:01:33;;;;;;;18.53;7.83;;;;;;;;;;5036798;28;20025;-65
2023/11/29 10:04:01;;;;;;;17.93;8.30;;;;;;;;;;5035667;28;20445;-63
2023/11/29 10:06:26;;;;;;;17.20;7.37;;;;;;;;;;5048537;28;20489;-63
2023/11/29 10:08:52;;;;;;;18.57;8.33;;;;;;;;;;5034018;28;20013;-62
2023/11/29 10:11:17;;;;;;;18.50;8.33;;;;;;;;;;5036971;28;20354;-63
2023/11/29 10:13:42;;;;;;;21.53;8.83;;;;;;;;;;5033522;28;20017;-64
2023/11/29 10:16:08;;;;;;;20.10;8.13;;;;;;;;;;5037794;28;20013;-62
2023/11/29 10:18:33;;;;;;;19.60;9.17;;;;;;;;;;5033968;28;20010;-64
2023/11/29 10:20:58;;;;;;;20.37;8.43;;;;;;;;;;5036370;28;20017;-63
2023/11/29 10:23:24;;;;;;;28.23;10.00;;;;;;;;;;5036222;28;20112;-62
2023/11/29 10:25:50;;;;;;;19.90;8.80;;;;;;;;;;5028276;28;20096;-62
2023/11/29 10:28:15;;;;;;;18.17;8.53;;;;;;;;;;5031075;28;20507;-62
2023/11/29 10:30:40;;;;;;;19.80;8.27;;;;;;;;;;5034072;28;20025;-64
2023/11/29 10:33:09;;;;;;;18.87;7.37;;;;;;;;;;5038086;28;20074;-62
2023/11/29 10:35:35;;;;;;;19.57;8.83;;;;;;;;;;5033672;28;20717;-62
2023/11/29 10:38:07;;;;;;;22.03;8.97;;;;;;;;;;5028193;28;20062;-62
2023/11/29 10:40:32;;;;;;;22.80;9.02;;;;;;;;;;5038173;28;20044;-62
2023/11/29 10:42:59;;;;;;;23.87;9.83;;;;;;;;;;5037379;28;20285;-62
2023/11/29 10:45:25;;;;;;;22.67;9.10;;;;;;;;;;5036467;28;20659;-61
2023/11/29 10:47:58;;;;;;;21.37;8.60;;;;;;;;;;5033019;28;20022;-62
2023/11/29 10:50:23;;;;;;;18.20;8.07;;;;;;;;;;5041451;28;20205;-63
2023/11/29 10:52:49;;;;;;;19.57;8.17;;;;;;;;;;5037171;28;20047;-64
2023/11/29 10:55:14;;;;;;;16.27;8.17;;;;;;;;;;5040093;28;20029;-62
2023/11/29 10:57:40;;;;;;;19.40;8.33;;;;;;;;;;5036937;28;20349;-62
2023/11/29 11:00:07;;;;;;;22.10;8.60;;;;;;;;;;5035673;28;20516;-63
2023/11/29 11:02:32;;;;;;;18.33;8.50;;;;;;;;;;5037815;28;20053;-61
2023/11/29 11:05:08;;;;;;;20.47;8.53;;;;;;;;;;5035388;28;20508;-62
2023/11/29 11:07:40;;;;;;;17.53;8.17;;;;;;;;;;5035709;28;20155;-64
2023/11/29 11:10:07;;;;;;;17.30;8.33;;;;;;;;;;5035999;28;20572;-61
2023/11/29 11:12:33;;;;;;;16.17;8.30;;;;;;;;;;5036140;28;20528;-62
2023/11/29 11:15:01;;;;;;;18.33;7.70;;;;;;;;;;5035988;28;20671;-61
2023/11/29 11:17:27;;;;;;;17.90;7.90;;;;;;;;;;5032125;28;20036;-62
2023/11/29 11:19:52;;;;;;;17.40;7.87;;;;;;;;;;5035306;28;20021;-63
2023/11/29 11:22:24;;;;;;;15.33;6.73;;;;;;;;;;5033914;28;20119;-62
2023/11/29 11:25:05;;;;;;;15.52;7.28;;;;;;;;;;5035653;28;20041;-62
2023/11/29 11:27:38;;;;;;;17.08;6.97;;;;;;;;;;5037646;28;20725;-63
2023/11/29 11:30:18;;;;;;;15.83;7.27;;;;;;;;;;5036244;28;20052;-63
2023/11/29 11:32:47;;;;;;;14.47;6.97;;;;;;;;;;5039266;28;20345;-62
2023/11/29 11:37:44;;;;;;;15.43;6.95;;;;;;;;;;5031603;28;20076;-62
2023/11/29 11:40:11;;;;;;;12.47;6.67;;;;;;;;;;5034808;28;20361;-62
2023/11/29 11:42:36;;;;;;;16.80;6.80;;;;;;;;;;5044483;28;20029;-61
2023/11/29 11:45:02;;;;;;;14.03;7.13;;;;;;;;;;5035498;28;20032;-63
2023/11/29 11:47:27;;;;;;;13.50;6.20;;;;;;;;;;5033023;28;20041;-63
2023/11/29 11:49:52;;;;;;;10.93;4.83;;;;;;;;;;5042248;28;20071;-62
2023/11/29 11:52:17;;;;;;;13.60;5.97;;;;;;;;;;5041689;28;20057;-66
2023/11/29 11:54:43;;;;;;;9.70;5.23;;;;;;;;;;5038149;28;20296;-67
2023/11/29 11:57:08;;;;;;;10.87;5.33;;;;;;;;;;5035377;28;20016;-68
2023/11/29 11:59:34;;;;;;;12.03;5.77;;;;;;;;;;5043399;28;20029;-66
2023/11/29 12:02:00;;;;;;;6.53;3.67;;;;;;;;;;5040978;28;20492;-65
2023/11/29 12:04:26;;;;;;;13.33;6.23;;;;;;;;;;5038990;28;20025;-67
2023/11/29 12:06:51;;;;;;;13.97;6.10;;;;;;;;;;5040576;28;20156;-66
2023/11/29 12:09:18;;;;;;;12.83;6.20;;;;;;;;;;5038121;28;20096;-68
2023/11/29 12:11:43;;;;;;;11.53;4.97;;;;;;;;;;5038931;28;20608;-66
2023/11/29 12:14:09;;;;;;;11.97;5.43;;;;;;;;;;5038191;28;20079;-69
2023/11/29 12:16:35;;;;;;;10.53;5.27;;;;;;;;;;5036241;28;20044;-68
2023/11/29 12:19:01;;;;;;;11.13;4.53;;;;;;;;;;5037947;28;20013;-67
2023/11/29 12:21:28;;;;;;;10.17;5.23;;;;;;;;;;5036862;28;20425;-66
2023/11/29 12:24:02;;;;;;;10.03;5.27;;;;;;;;;;5035824;28;20024;-68
2023/11/29 12:26:28;;;;;;;8.77;4.83;;;;;;;;;;5033450;28;20017;-67
2023/11/29 12:28:57;;;;;;;12.93;8.07;;;;;;;;;;5036473;28;20066;-69
2023/11/29 12:31:22;;;;;;;10.57;5.77;;;;;;;;;;5036567;28;20018;-68
2023/11/29 12:33:48;;;;;;;9.07;4.73;;;;;;;;;;5033011;28;20024;-66
2023/11/29 12:36:14;;;;;;;10.27;5.23;;;;;;;;;;5035688;28;20025;-66
2023/11/29 12:38:39;;;;;;;11.87;5.50;;;;;;;;;;5032341;28;20646;-69
2023/11/29 12:41:05;;;;;;;10.23;4.90;;;;;;;;;;5040773;28;20099;-69
2023/11/29 12:43:30;;;;;;;10.37;4.50;;;;;;;;;;5033040;28;20648;-68
2023/11/29 12:45:55;;;;;;;10.53;4.60;;;;;;;;;;5032087;28;20030;-67
2023/11/29 12:48:21;;;;;;;10.67;4.63;;;;;;;;;;5040760;28;20025;-66
2023/11/29 12:50:46;;;;;;;10.93;4.57;;;;;;;;;;5036463;28;20021;-69
2023/11/29 12:53:15;;;;;;;9.07;4.80;;;;;;;;;;5036086;28;20535;-66
2023/11/29 12:55:40;;;;;;;9.47;4.60;;;;;;;;;;5030114;28;20018;-69
2023/11/29 12:58:06;;;;;;;9.67;4.80;;;;;;;;;;5039661;28;20425;-66
2023/11/29 13:00:31;;;;;;;13.23;5.30;;;;;;;;;;5043111;28;20029;-67
2023/11/29 13:02:57;;;;;;;9.03;4.70;;;;;;;;;;5036698;28;20029;-66
2023/11/29 13:05:23;;;;;;;8.87;4.40;;;;;;;;;;5037237;28;20390;-66
2023/11/29 13:07:48;;;;;;;9.60;4.00;;;;;;;;;;5038688;28;20075;-67
2023/11/29 13:10:13;;;;;;;10.53;4.50;;;;;;;;;;5037660;28;20040;-67
2023/11/29 13:12:38;;;;;;;10.17;4.43;;;;;;;;;;5038719;28;20517;-69
2023/11/29 13:15:04;;;;;;;11.13;4.60;;;;;;;;;;5039016;28;20028;-68
2023/11/29 13:17:29;;;;;;;11.40;4.53;;;;;;;;;;5034426;28;20027;-68
2023/11/29 13:19:55;;;;;;;8.67;4.70;;;;;;;;;;5034563;28;20013;-66
2023/11/29 13:22:20;;;;;;;9.07;4.60;;;;;;;;;;5038010;28;20927;-66
2023/11/29 13:24:45;;;;;;;8.77;4.90;;;;;;;;;;5033741;28;20025;-69
2023/11/29 13:27:10;;;;;;;10.57;4.83;;;;;;;;;;5035304;28;20041;-68
2023/11/29 13:29:36;;;;;;;8.23;4.60;;;;;;;;;;5037520;28;20091;-67
2023/11/29 13:32:01;;;;;;;8.43;4.30;;;;;;;;;;5031147;28;20806;-66
2023/11/29 13:34:27;;;;;;;10.13;4.30;;;;;;;;;;5036451;28;20041;-65
2023/11/29 13:36:52;;;;;;;9.47;4.67;;;;;;;;;;5033003;28;20066;-67
2023/11/29 13:39:17;;;;;;;11.87;4.90;;;;;;;;;;5037613;28;20465;-69
2023/11/29 13:41:42;;;;;;;11.80;4.47;;;;;;;;;;5033244;28;20184;-68
2023/11/29 13:44:08;;;;;;;8.17;4.20;;;;;;;;;;5029231;28;20021;-66
2023/11/29 13:46:33;;;;;;;9.63;4.03;;;;;;;;;;5036572;28;20488;-67
2023/11/29 13:48:58;;;;;;;8.97;4.20;;;;;;;;;;5037527;28;20020;-64
2023/11/29 13:51:23;;;;;;;12.03;4.20;;;;;;;;;;5036026;28;20052;-68
2023/11/29 13:53:49;;;;;;;9.13;4.67;;;;;;;;;;5028242;28;20462;-69
2023/11/29 13:56:16;;;;;;;9.60;3.73;;;;;;;;;;5040032;28;20005;-67
2023/11/29 13:58:42;;;;;;;10.20;4.40;;;;;;;;;;5039022;28;20020;-69
2023/11/29 14:01:07;;;;;;;7.77;3.80;;;;;;;;;;5040904;28;20366;-69
2023/11/29 14:03:32;;;;;;;8.87;4.47;;;;;;;;;;5028044;28;20025;-68
2023/11/29 14:05:58;;;;;;;13.23;4.83;;;;;;;;;;5032686;28;20024;-67
2023/11/29 14:08:24;;;;;;;12.53;5.00;;;;;;;;;;5035452;28;20056;-66
2023/11/29 14:10:49;;;;;;;12.73;4.83;;;;;;;;;;5038928;28;20108;-67
2023/11/29 14:13:14;;;;;;;8.23;4.33;;;;;;;;;;5040015;28;20013;-67
2023/11/29 14:15:40;;;;;;;9.67;4.40;;;;;;;;;;5035775;28;20021;-66